Miami, FL (33172)

7:18 AM EDT on April 26, 2017 (GMT -0400)
DV Floral Group | | Change Station

Elev 26 ft 25.79 °N, 80.35 °W | Updated 3 seconds ago

Partly Cloudy
Partly Cloudy
--
Feels Like --
N
-
Wind Variable Wind from North

Today
High -- | Low -- °F
--% Chance of Precip.
Yesterday
High -- | Low -- °F
Precip. -- in
Pressure 29.90 in
Visibility 10.0 miles
Clouds Few 5000 ft
Few 25000 ft
Dew Point Not available.
Humidity Not available.
Rainfall 0.00 in
Snow Depth Not available.
6:48 AM 7:50 PM
Waning Crescent, 0% visible
METAR KMIA 261053Z 00000KT 10SM FEW050 FEW250 20/16 A2989 RMK AO2 SLP123 T02000161
Pressure 29.90 in
Visibility 10.0 miles
Clouds Few 5000 ft
Few 25000 ft
Dew Point Not available.
Humidity Not available.
Rainfall 0.00 in
Snow Depth Not available.
6:48 AM 7:50 PM
Waning Crescent, 0% visible
METAR KMIA 261053Z 00000KT 10SM FEW050 FEW250 20/16 A2989 RMK AO2 SLP123 T02000161

Get Severe Weather Alerts

Thanks for signing up!

Be on the lookout for a verification email in your inbox.

You'll start receiving the daily forecast at 8 AM.

×

10-Day Weather Forecast

Almanac

Astronomy

Apr. 26, 2017 Rise Set
Actual Time
Civil Twilight
Nautical Twilight
Astronomical Twilight
Moon
Length of Visible Light
Length of Day
Tomorrow will be .
, % of the Moon is Illuminated

Today's Extremes

State Highs State Lows

Community

WunderPhotos

WunderBlog® & News

Nearby

Air Quality

  Air Quality AQ Index Pollutant
Not available.

Snow Depth

Station Depth Elevation

Earthquake Activity

City Distance Mag. Time & Date
Minimum magnitude displayed is 2.5.

Coastal Water Temperatures

Place Temperature

Stations

Nearby Weather Stations

Station Location Temp. Windchill Dew Point Humidity Wind Precip. Elev Updated Type
                   

Watches & Warnings

There are currently no watches in effect.